sensor_id;sensor_type;location;lat;lon;timestamp;P1;durP1;ratioP1;P2;durP2;ratioP2
76035;SDS011;64732;56.314;44.068;2023-05-27T00:01:53;97.75;;;19.85;;
76035;SDS011;64732;56.314;44.068;2023-05-27T00:04:14;287.23;;;26.02;;
76035;SDS011;64732;56.314;44.068;2023-05-27T00:06:35;69.38;;;18.17;;
76035;SDS011;64732;56.314;44.068;2023-05-27T00:09:00;208.88;;;23.08;;
76035;SDS011;64732;56.314;44.068;2023-05-27T00:11:25;59.55;;;16.00;;
76035;SDS011;64732;56.314;44.068;2023-05-27T00:13:46;177.40;;;20.80;;
76035;SDS011;64732;56.314;44.068;2023-05-27T00:16:07;226.98;;;21.38;;
76035;SDS011;64732;56.314;44.068;2023-05-27T00:18:28;114.68;;;14.02;;
76035;SDS011;64732;56.314;44.068;2023-05-27T00:20:49;18.95;;;10.63;;
76035;SDS011;64732;56.314;44.068;2023-05-27T00:23:11;55.50;;;17.02;;
76035;SDS011;64732;56.314;44.068;2023-05-27T00:25:34;44.90;;;14.45;;
76035;SDS011;64732;56.314;44.068;2023-05-27T00:27:55;91.95;;;14.57;;
76035;SDS011;64732;56.314;44.068;2023-05-27T00:30:16;165.20;;;20.60;;
76035;SDS011;64732;56.314;44.068;2023-05-27T00:32:37;21.00;;;11.15;;
76035;SDS011;64732;56.314;44.068;2023-05-27T00:34:59;25.20;;;12.07;;
76035;SDS011;64732;56.314;44.068;2023-05-27T00:37:20;24.65;;;11.95;;
76035;SDS011;64732;56.314;44.068;2023-05-27T00:39:41;20.90;;;11.77;;
76035;SDS011;64732;56.314;44.068;2023-05-27T00:42:05;59.63;;;13.38;;
76035;SDS011;64732;56.314;44.068;2023-05-27T00:44:27;27.13;;;11.30;;
76035;SDS011;64732;56.314;44.068;2023-05-27T00:46:48;16.77;;;10.40;;
76035;SDS011;64732;56.314;44.068;2023-05-27T00:49:11;21.02;;;9.45;;
76035;SDS011;64732;56.314;44.068;2023-05-27T00:51:32;50.67;;;11.88;;
76035;SDS011;64732;56.314;44.068;2023-05-27T00:53:53;28.75;;;10.65;;
76035;SDS011;64732;56.314;44.068;2023-05-27T00:56:15;48.58;;;12.75;;
76035;SDS011;64732;56.314;44.068;2023-05-27T00:58:39;15.43;;;8.73;;
76035;SDS011;64732;56.314;44.068;2023-05-27T01:01:00;14.48;;;9.05;;
76035;SDS011;64732;56.314;44.068;2023-05-27T01:03:21;13.60;;;7.20;;
76035;SDS011;64732;56.314;44.068;2023-05-27T01:05:42;15.88;;;9.15;;
76035;SDS011;64732;56.314;44.068;2023-05-27T01:08:06;12.32;;;6.93;;
76035;SDS011;64732;56.314;44.068;2023-05-27T01:10:36;12.80;;;8.15;;
76035;SDS011;64732;56.314;44.068;2023-05-27T01:13:01;14.63;;;9.27;;
76035;SDS011;64732;56.314;44.068;2023-05-27T01:15:30;13.82;;;7.60;;
76035;SDS011;64732;56.314;44.068;2023-05-27T01:17:53;15.80;;;7.88;;
76035;SDS011;64732;56.314;44.068;2023-05-27T01:20:16;12.23;;;6.03;;
76035;SDS011;64732;56.314;44.068;2023-05-27T01:22:40;14.18;;;7.28;;
76035;SDS011;64732;56.314;44.068;2023-05-27T01:25:01;11.15;;;7.30;;
76035;SDS011;64732;56.314;44.068;2023-05-27T01:27:24;11.63;;;6.47;;
76035;SDS011;64732;56.314;44.068;2023-05-27T01:29:45;9.80;;;5.57;;
76035;SDS011;64732;56.314;44.068;2023-05-27T01:32:08;10.27;;;5.47;;
76035;SDS011;64732;56.314;44.068;2023-05-27T01:34:33;10.98;;;5.03;;
76035;SDS011;64732;56.314;44.068;2023-05-27T01:36:58;8.73;;;5.30;;
76035;SDS011;64732;56.314;44.068;2023-05-27T01:39:23;10.80;;;5.55;;
76035;SDS011;64732;56.314;44.068;2023-05-27T01:41:45;9.77;;;5.20;;
76035;SDS011;64732;56.314;44.068;2023-05-27T01:44:06;8.68;;;5.30;;
76035;SDS011;64732;56.314;44.068;2023-05-27T01:46:28;8.27;;;5.10;;
76035;SDS011;64732;56.314;44.068;2023-05-27T01:48:49;11.15;;;6.25;;
76035;SDS011;64732;56.314;44.068;2023-05-27T01:51:10;8.85;;;4.80;;
76035;SDS011;64732;56.314;44.068;2023-05-27T01:53:31;12.38;;;6.68;;
76035;SDS011;64732;56.314;44.068;2023-05-27T01:55:55;10.88;;;5.93;;
76035;SDS011;64732;56.314;44.068;2023-05-27T01:58:16;10.63;;;6.90;;
76035;SDS011;64732;56.314;44.068;2023-05-27T02:00:37;14.02;;;6.90;;
76035;SDS011;64732;56.314;44.068;2023-05-27T02:02:58;11.95;;;6.90;;
76035;SDS011;64732;56.314;44.068;2023-05-27T02:05:19;10.52;;;6.60;;
76035;SDS011;64732;56.314;44.068;2023-05-27T02:07:40;10.77;;;5.32;;
76035;SDS011;64732;56.314;44.068;2023-05-27T02:10:01;14.52;;;6.63;;
76035;SDS011;64732;56.314;44.068;2023-05-27T02:12:28;9.55;;;6.15;;
76035;SDS011;64732;56.314;44.068;2023-05-27T02:14:49;13.93;;;6.90;;
76035;SDS011;64732;56.314;44.068;2023-05-27T02:17:10;10.88;;;6.00;;
76035;SDS011;64732;56.314;44.068;2023-05-27T02:19:31;11.60;;;6.38;;
76035;SDS011;64732;56.314;44.068;2023-05-27T02:21:52;9.70;;;6.55;;
76035;SDS011;64732;56.314;44.068;2023-05-27T02:24:13;12.10;;;6.93;;
76035;SDS011;64732;56.314;44.068;2023-05-27T02:26:34;11.25;;;6.47;;
76035;SDS011;64732;56.314;44.068;2023-05-27T02:28:58;10.57;;;5.60;;
76035;SDS011;64732;56.314;44.068;2023-05-27T02:31:19;9.90;;;5.93;;
76035;SDS011;64732;56.314;44.068;2023-05-27T02:33:40;9.93;;;6.10;;
76035;SDS011;64732;56.314;44.068;2023-05-27T02:36:01;11.63;;;6.13;;
76035;SDS011;64732;56.314;44.068;2023-05-27T02:38:22;12.98;;;6.15;;
76035;SDS011;64732;56.314;44.068;2023-05-27T02:43:15;12.30;;;6.82;;
76035;SDS011;64732;56.314;44.068;2023-05-27T02:45:46;11.02;;;7.07;;
76035;SDS011;64732;56.314;44.068;2023-05-27T02:48:12;12.65;;;6.65;;
76035;SDS011;64732;56.314;44.068;2023-05-27T02:50:33;12.73;;;8.70;;
76035;SDS011;64732;56.314;44.068;2023-05-27T02:52:55;14.75;;;8.50;;
76035;SDS011;64732;56.314;44.068;2023-05-27T02:55:16;15.15;;;8.70;;
76035;SDS011;64732;56.314;44.068;2023-05-27T02:57:37;13.65;;;9.68;;
76035;SDS011;64732;56.314;44.068;2023-05-27T02:59:58;17.58;;;10.23;;
76035;SDS011;64732;56.314;44.068;2023-05-27T03:02:22;15.50;;;9.45;;
76035;SDS011;64732;56.314;44.068;2023-05-27T03:04:43;16.33;;;10.20;;
76035;SDS011;64732;56.314;44.068;2023-05-27T03:07:04;15.70;;;9.38;;
76035;SDS011;64732;56.314;44.068;2023-05-27T03:09:25;15.75;;;9.25;;
76035;SDS011;64732;56.314;44.068;2023-05-27T03:11:46;13.52;;;8.52;;
76035;SDS011;64732;56.314;44.068;2023-05-27T03:14:07;16.83;;;8.63;;
76035;SDS011;64732;56.314;44.068;2023-05-27T03:16:29;15.57;;;9.30;;
76035;SDS011;64732;56.314;44.068;2023-05-27T03:18:52;15.13;;;10.48;;
76035;SDS011;64732;56.314;44.068;2023-05-27T03:21:13;15.93;;;10.23;;
76035;SDS011;64732;56.314;44.068;2023-05-27T03:23:34;15.48;;;10.30;;
76035;SDS011;64732;56.314;44.068;2023-05-27T03:25:55;16.75;;;11.00;;
76035;SDS011;64732;56.314;44.068;2023-05-27T03:28:16;20.20;;;10.60;;
76035;SDS011;64732;56.314;44.068;2023-05-27T03:30:40;23.05;;;13.25;;
76035;SDS011;64732;56.314;44.068;2023-05-27T03:33:07;22.77;;;13.60;;
76035;SDS011;64732;56.314;44.068;2023-05-27T03:35:31;19.88;;;12.55;;
76035;SDS011;64732;56.314;44.068;2023-05-27T03:37:52;22.83;;;12.65;;
76035;SDS011;64732;56.314;44.068;2023-05-27T03:40:14;27.85;;;15.52;;
76035;SDS011;64732;56.314;44.068;2023-05-27T03:42:35;26.65;;;17.13;;
76035;SDS011;64732;56.314;44.068;2023-05-27T03:44:56;21.20;;;13.73;;
76035;SDS011;64732;56.314;44.068;2023-05-27T03:47:17;19.08;;;12.77;;
76035;SDS011;64732;56.314;44.068;2023-05-27T03:49:39;20.73;;;12.23;;
76035;SDS011;64732;56.314;44.068;2023-05-27T03:52:02;17.35;;;12.15;;
76035;SDS011;64732;56.314;44.068;2023-05-27T03:54:24;23.60;;;13.82;;
76035;SDS011;64732;56.314;44.068;2023-05-27T03:56:45;26.45;;;15.30;;
76035;SDS011;64732;56.314;44.068;2023-05-27T03:59:06;21.67;;;14.07;;
76035;SDS011;64732;56.314;44.068;2023-05-27T04:01:27;22.83;;;15.30;;
76035;SDS011;64732;56.314;44.068;2023-05-27T04:03:48;29.50;;;17.30;;
76035;SDS011;64732;56.314;44.068;2023-05-27T04:06:09;22.17;;;15.02;;
76035;SDS011;64732;56.314;44.068;2023-05-27T04:08:33;19.08;;;13.60;;
76035;SDS011;64732;56.314;44.068;2023-05-27T04:10:54;25.02;;;15.98;;
76035;SDS011;64732;56.314;44.068;2023-05-27T04:13:15;20.23;;;14.23;;
76035;SDS011;64732;56.314;44.068;2023-05-27T04:15:37;18.45;;;12.82;;
76035;SDS011;64732;56.314;44.068;2023-05-27T04:17:58;25.27;;;15.88;;
76035;SDS011;64732;56.314;44.068;2023-05-27T04:20:19;15.90;;;10.93;;
76035;SDS011;64732;56.314;44.068;2023-05-27T04:22:40;15.27;;;10.63;;
76035;SDS011;64732;56.314;44.068;2023-05-27T04:25:04;17.45;;;11.02;;
76035;SDS011;64732;56.314;44.068;2023-05-27T04:27:26;13.55;;;9.93;;
76035;SDS011;64732;56.314;44.068;2023-05-27T04:29:46;18.63;;;9.43;;
76035;SDS011;64732;56.314;44.068;2023-05-27T04:32:07;15.25;;;9.00;;
76035;SDS011;64732;56.314;44.068;2023-05-27T04:34:28;15.13;;;9.43;;
76035;SDS011;64732;56.314;44.068;2023-05-27T04:36:49;15.73;;;8.90;;
76035;SDS011;64732;56.314;44.068;2023-05-27T04:39:10;13.85;;;8.75;;
76035;SDS011;64732;56.314;44.068;2023-05-27T04:41:34;12.02;;;8.45;;
76035;SDS011;64732;56.314;44.068;2023-05-27T04:43:55;13.18;;;8.55;;
76035;SDS011;64732;56.314;44.068;2023-05-27T04:46:16;13.52;;;9.10;;
76035;SDS011;64732;56.314;44.068;2023-05-27T04:48:37;14.25;;;9.07;;
76035;SDS011;64732;56.314;44.068;2023-05-27T04:51:01;14.63;;;8.25;;
76035;SDS011;64732;56.314;44.068;2023-05-27T04:53:25;12.95;;;8.55;;
76035;SDS011;64732;56.314;44.068;2023-05-27T04:55:46;12.45;;;7.80;;
76035;SDS011;64732;56.314;44.068;2023-05-27T04:58:09;14.15;;;7.97;;
76035;SDS011;64732;56.314;44.068;2023-05-27T05:00:30;13.18;;;7.95;;
76035;SDS011;64732;56.314;44.068;2023-05-27T05:02:52;14.00;;;8.13;;
76035;SDS011;64732;56.314;44.068;2023-05-27T05:05:13;14.52;;;8.20;;
76035;SDS011;64732;56.314;44.068;2023-05-27T05:07:35;12.50;;;7.43;;
76035;SDS011;64732;56.314;44.068;2023-05-27T05:09:56;12.45;;;7.88;;
76035;SDS011;64732;56.314;44.068;2023-05-27T05:12:17;14.75;;;7.95;;
76035;SDS011;64732;56.314;44.068;2023-05-27T05:14:41;14.73;;;8.13;;
76035;SDS011;64732;56.314;44.068;2023-05-27T05:17:02;12.02;;;7.88;;
76035;SDS011;64732;56.314;44.068;2023-05-27T05:19:23;15.35;;;8.63;;
76035;SDS011;64732;56.314;44.068;2023-05-27T05:21:44;12.00;;;7.20;;
76035;SDS011;64732;56.314;44.068;2023-05-27T05:24:05;12.52;;;7.45;;
76035;SDS011;64732;56.314;44.068;2023-05-27T05:26:27;12.70;;;6.65;;
76035;SDS011;64732;56.314;44.068;2023-05-27T05:28:48;13.35;;;8.02;;
76035;SDS011;64732;56.314;44.068;2023-05-27T05:31:12;12.45;;;7.45;;
76035;SDS011;64732;56.314;44.068;2023-05-27T05:33:33;12.13;;;7.32;;
76035;SDS011;64732;56.314;44.068;2023-05-27T05:35:55;14.93;;;7.18;;
76035;SDS011;64732;56.314;44.068;2023-05-27T05:38:16;10.02;;;6.75;;
76035;SDS011;64732;56.314;44.068;2023-05-27T05:40:37;11.57;;;6.97;;
76035;SDS011;64732;56.314;44.068;2023-05-27T05:42:58;12.75;;;7.53;;
76035;SDS011;64732;56.314;44.068;2023-05-27T05:45:19;9.93;;;6.40;;
76035;SDS011;64732;56.314;44.068;2023-05-27T05:47:43;11.68;;;6.82;;
76035;SDS011;64732;56.314;44.068;2023-05-27T05:50:05;10.30;;;6.50;;
76035;SDS011;64732;56.314;44.068;2023-05-27T05:52:29;9.82;;;6.80;;
76035;SDS011;64732;56.314;44.068;2023-05-27T05:54:49;14.43;;;7.82;;
76035;SDS011;64732;56.314;44.068;2023-05-27T05:57:10;19.77;;;12.98;;
76035;SDS011;64732;56.314;44.068;2023-05-27T05:59:31;11.23;;;7.18;;
76035;SDS011;64732;56.314;44.068;2023-05-27T06:01:52;9.90;;;6.53;;
76035;SDS011;64732;56.314;44.068;2023-05-27T06:04:16;10.55;;;6.60;;
76035;SDS011;64732;56.314;44.068;2023-05-27T06:06:37;10.80;;;6.20;;
76035;SDS011;64732;56.314;44.068;2023-05-27T06:08:58;7.95;;;5.50;;
76035;SDS011;64732;56.314;44.068;2023-05-27T06:11:19;9.07;;;5.93;;
76035;SDS011;64732;56.314;44.068;2023-05-27T06:13:43;9.88;;;5.82;;
76035;SDS011;64732;56.314;44.068;2023-05-27T06:16:04;10.55;;;6.10;;
76035;SDS011;64732;56.314;44.068;2023-05-27T06:18:25;13.90;;;8.07;;
76035;SDS011;64732;56.314;44.068;2023-05-27T06:20:49;9.57;;;5.88;;
76035;SDS011;64732;56.314;44.068;2023-05-27T06:23:10;10.38;;;6.43;;
76035;SDS011;64732;56.314;44.068;2023-05-27T06:25:31;9.98;;;6.22;;
76035;SDS011;64732;56.314;44.068;2023-05-27T06:27:52;12.45;;;7.22;;
76035;SDS011;64732;56.314;44.068;2023-05-27T06:30:13;12.27;;;8.48;;
76035;SDS011;64732;56.314;44.068;2023-05-27T06:32:34;13.07;;;7.82;;
76035;SDS011;64732;56.314;44.068;2023-05-27T06:34:55;11.25;;;7.43;;
76035;SDS011;64732;56.314;44.068;2023-05-27T06:37:19;12.95;;;8.57;;
76035;SDS011;64732;56.314;44.068;2023-05-27T06:39:40;12.85;;;8.48;;
76035;SDS011;64732;56.314;44.068;2023-05-27T06:42:01;16.20;;;9.38;;
76035;SDS011;64732;56.314;44.068;2023-05-27T06:44:23;12.82;;;8.43;;
76035;SDS011;64732;56.314;44.068;2023-05-27T06:46:44;12.15;;;8.35;;
76035;SDS011;64732;56.314;44.068;2023-05-27T06:49:05;14.23;;;8.20;;
76035;SDS011;64732;56.314;44.068;2023-05-27T06:51:26;14.38;;;8.90;;
76035;SDS011;64732;56.314;44.068;2023-05-27T06:53:50;19.80;;;8.63;;
76035;SDS011;64732;56.314;44.068;2023-05-27T06:56:11;14.43;;;8.90;;
76035;SDS011;64732;56.314;44.068;2023-05-27T06:58:32;12.82;;;8.32;;
76035;SDS011;64732;56.314;44.068;2023-05-27T07:00:53;11.57;;;7.93;;
76035;SDS011;64732;56.314;44.068;2023-05-27T07:03:14;24.17;;;8.40;;
76035;SDS011;64732;56.314;44.068;2023-05-27T07:05:35;31.02;;;20.40;;
76035;SDS011;64732;56.314;44.068;2023-05-27T07:07:57;13.75;;;7.78;;
76035;SDS011;64732;56.314;44.068;2023-05-27T07:10:20;15.27;;;9.75;;
76035;SDS011;64732;56.314;44.068;2023-05-27T07:12:41;12.23;;;7.60;;
76035;SDS011;64732;56.314;44.068;2023-05-27T07:15:03;11.30;;;7.40;;
76035;SDS011;64732;56.314;44.068;2023-05-27T07:17:26;11.48;;;7.55;;
76035;SDS011;64732;56.314;44.068;2023-05-27T07:19:47;11.05;;;7.40;;
76035;SDS011;64732;56.314;44.068;2023-05-27T07:22:08;9.85;;;7.20;;
76035;SDS011;64732;56.314;44.068;2023-05-27T07:24:29;11.45;;;6.88;;
76035;SDS011;64732;56.314;44.068;2023-05-27T07:26:53;11.50;;;7.88;;
76035;SDS011;64732;56.314;44.068;2023-05-27T07:29:15;11.43;;;7.30;;
76035;SDS011;64732;56.314;44.068;2023-05-27T07:31:36;11.45;;;7.97;;
76035;SDS011;64732;56.314;44.068;2023-05-27T07:33:57;11.88;;;7.10;;
76035;SDS011;64732;56.314;44.068;2023-05-27T07:36:18;10.95;;;7.78;;
76035;SDS011;64732;56.314;44.068;2023-05-27T07:38:39;9.23;;;5.65;;
76035;SDS011;64732;56.314;44.068;2023-05-27T07:41:00;9.50;;;6.82;;
76035;SDS011;64732;56.314;44.068;2023-05-27T07:43:24;9.75;;;7.60;;
76035;SDS011;64732;56.314;44.068;2023-05-27T07:45:45;11.07;;;6.78;;
76035;SDS011;64732;56.314;44.068;2023-05-27T07:48:06;12.75;;;7.60;;
76035;SDS011;64732;56.314;44.068;2023-05-27T07:50:27;11.45;;;7.22;;
76035;SDS011;64732;56.314;44.068;2023-05-27T07:52:48;11.48;;;6.43;;
76035;SDS011;64732;56.314;44.068;2023-05-27T07:55:09;11.73;;;6.43;;
76035;SDS011;64732;56.314;44.068;2023-05-27T07:57:30;11.27;;;6.60;;
76035;SDS011;64732;56.314;44.068;2023-05-27T07:59:54;11.77;;;7.20;;
76035;SDS011;64732;56.314;44.068;2023-05-27T08:02:15;10.63;;;7.63;;
76035;SDS011;64732;56.314;44.068;2023-05-27T08:04:36;12.18;;;7.07;;
76035;SDS011;64732;56.314;44.068;2023-05-27T08:06:57;10.35;;;6.72;;
76035;SDS011;64732;56.314;44.068;2023-05-27T08:09:18;11.75;;;7.05;;
76035;SDS011;64732;56.314;44.068;2023-05-27T08:11:39;14.70;;;7.80;;
76035;SDS011;64732;56.314;44.068;2023-05-27T08:14:00;12.52;;;7.30;;
76035;SDS011;64732;56.314;44.068;2023-05-27T08:16:24;13.75;;;6.57;;
76035;SDS011;64732;56.314;44.068;2023-05-27T08:18:47;10.18;;;6.85;;
76035;SDS011;64732;56.314;44.068;2023-05-27T08:21:08;14.00;;;7.80;;
76035;SDS011;64732;56.314;44.068;2023-05-27T08:23:29;11.07;;;7.13;;
76035;SDS011;64732;56.314;44.068;2023-05-27T08:25:50;16.35;;;7.80;;
76035;SDS011;64732;56.314;44.068;2023-05-27T08:28:11;10.48;;;6.32;;
76035;SDS011;64732;56.314;44.068;2023-05-27T08:30:32;11.80;;;6.80;;
76035;SDS011;64732;56.314;44.068;2023-05-27T08:32:57;13.57;;;6.25;;
76035;SDS011;64732;56.314;44.068;2023-05-27T08:35:18;7.80;;;5.63;;
76035;SDS011;64732;56.314;44.068;2023-05-27T08:37:39;10.80;;;6.43;;
76035;SDS011;64732;56.314;44.068;2023-05-27T08:40:00;9.40;;;5.93;;
76035;SDS011;64732;56.314;44.068;2023-05-27T08:42:24;9.38;;;6.70;;
76035;SDS011;64732;56.314;44.068;2023-05-27T08:44:45;13.55;;;7.15;;
76035;SDS011;64732;56.314;44.068;2023-05-27T08:47:06;12.98;;;6.75;;
76035;SDS011;64732;56.314;44.068;2023-05-27T08:49:30;9.07;;;6.53;;
76035;SDS011;64732;56.314;44.068;2023-05-27T08:51:51;9.52;;;6.82;;
76035;SDS011;64732;56.314;44.068;2023-05-27T08:54:13;9.52;;;6.53;;
76035;SDS011;64732;56.314;44.068;2023-05-27T08:56:34;14.15;;;7.32;;
76035;SDS011;64732;56.314;44.068;2023-05-27T08:58:56;9.30;;;6.57;;
76035;SDS011;64732;56.314;44.068;2023-05-27T09:01:17;9.90;;;5.43;;
76035;SDS011;64732;56.314;44.068;2023-05-27T09:03:39;9.68;;;6.10;;
76035;SDS011;64732;56.314;44.068;2023-05-27T09:06:02;8.48;;;5.45;;
76035;SDS011;64732;56.314;44.068;2023-05-27T09:08:24;12.20;;;6.28;;
76035;SDS011;64732;56.314;44.068;2023-05-27T09:10:48;8.18;;;5.57;;
76035;SDS011;64732;56.314;44.068;2023-05-27T09:13:09;8.27;;;5.68;;
76035;SDS011;64732;56.314;44.068;2023-05-27T09:15:30;10.40;;;6.07;;
76035;SDS011;64732;56.314;44.068;2023-05-27T09:17:51;12.88;;;6.60;;
76035;SDS011;64732;56.314;44.068;2023-05-27T09:20:12;8.35;;;5.78;;
76035;SDS011;64732;56.314;44.068;2023-05-27T09:22:36;8.70;;;5.60;;
76035;SDS011;64732;56.314;44.068;2023-05-27T09:24:59;12.80;;;6.63;;
76035;SDS011;64732;56.314;44.068;2023-05-27T09:27:23;11.55;;;5.93;;
76035;SDS011;64732;56.314;44.068;2023-05-27T09:29:45;11.27;;;6.13;;
76035;SDS011;64732;56.314;44.068;2023-05-27T09:32:06;7.68;;;5.57;;
76035;SDS011;64732;56.314;44.068;2023-05-27T09:34:27;10.60;;;6.00;;
76035;SDS011;64732;56.314;44.068;2023-05-27T09:36:49;8.63;;;6.28;;
76035;SDS011;64732;56.314;44.068;2023-05-27T09:39:13;8.93;;;6.15;;
76035;SDS011;64732;56.314;44.068;2023-05-27T09:41:34;10.20;;;5.82;;
76035;SDS011;64732;56.314;44.068;2023-05-27T09:43:56;8.45;;;5.65;;
76035;SDS011;64732;56.314;44.068;2023-05-27T09:46:17;9.70;;;6.05;;
76035;SDS011;64732;56.314;44.068;2023-05-27T09:48:38;9.35;;;6.07;;
76035;SDS011;64732;56.314;44.068;2023-05-27T09:50:59;8.90;;;5.70;;
76035;SDS011;64732;56.314;44.068;2023-05-27T09:53:20;9.75;;;5.93;;
76035;SDS011;64732;56.314;44.068;2023-05-27T09:55:44;9.90;;;6.55;;
76035;SDS011;64732;56.314;44.068;2023-05-27T09:58:06;8.27;;;5.65;;
76035;SDS011;64732;56.314;44.068;2023-05-27T10:00:27;7.88;;;5.68;;
76035;SDS011;64732;56.314;44.068;2023-05-27T10:02:49;7.75;;;5.60;;
76035;SDS011;64732;56.314;44.068;2023-05-27T10:05:11;11.13;;;5.55;;
76035;SDS011;64732;56.314;44.068;2023-05-27T10:07:32;12.93;;;5.80;;
76035;SDS011;64732;56.314;44.068;2023-05-27T10:09:55;10.48;;;5.55;;
76035;SDS011;64732;56.314;44.068;2023-05-27T10:12:19;11.00;;;6.75;;
76035;SDS011;64732;56.314;44.068;2023-05-27T10:14:41;8.88;;;5.88;;
76035;SDS011;64732;56.314;44.068;2023-05-27T10:17:02;9.90;;;5.80;;
76035;SDS011;64732;56.314;44.068;2023-05-27T10:19:23;8.35;;;5.47;;
76035;SDS011;64732;56.314;44.068;2023-05-27T10:21:44;8.52;;;5.40;;
76035;SDS011;64732;56.314;44.068;2023-05-27T10:24:09;7.75;;;5.20;;
76035;SDS011;64732;56.314;44.068;2023-05-27T10:26:33;7.78;;;4.68;;
76035;SDS011;64732;56.314;44.068;2023-05-27T10:29:04;6.68;;;4.25;;
76035;SDS011;64732;56.314;44.068;2023-05-27T10:31:28;6.72;;;4.55;;
76035;SDS011;64732;56.314;44.068;2023-05-27T10:33:49;7.95;;;4.72;;
76035;SDS011;64732;56.314;44.068;2023-05-27T10:36:11;9.57;;;5.10;;
76035;SDS011;64732;56.314;44.068;2023-05-27T10:38:33;8.57;;;4.80;;
76035;SDS011;64732;56.314;44.068;2023-05-27T10:40:58;15.50;;;4.78;;
76035;SDS011;64732;56.314;44.068;2023-05-27T10:43:20;9.15;;;5.15;;
76035;SDS011;64732;56.314;44.068;2023-05-27T10:45:43;7.15;;;4.35;;
76035;SDS011;64732;56.314;44.068;2023-05-27T10:48:06;8.48;;;4.38;;
76035;SDS011;64732;56.314;44.068;2023-05-27T10:50:37;10.70;;;5.32;;
76035;SDS011;64732;56.314;44.068;2023-05-27T10:52:58;9.50;;;4.85;;
76035;SDS011;64732;56.314;44.068;2023-05-27T10:55:19;7.18;;;4.60;;
76035;SDS011;64732;56.314;44.068;2023-05-27T10:57:41;7.60;;;4.40;;
76035;SDS011;64732;56.314;44.068;2023-05-27T11:00:03;8.52;;;4.25;;
76035;SDS011;64732;56.314;44.068;2023-05-27T11:02:31;6.20;;;4.47;;
76035;SDS011;64732;56.314;44.068;2023-05-27T11:04:52;7.70;;;4.50;;
76035;SDS011;64732;56.314;44.068;2023-05-27T11:07:13;6.68;;;4.43;;
76035;SDS011;64732;56.314;44.068;2023-05-27T11:09:44;10.52;;;4.68;;
76035;SDS011;64732;56.314;44.068;2023-05-27T11:12:06;6.93;;;4.30;;
76035;SDS011;64732;56.314;44.068;2023-05-27T11:14:27;7.50;;;4.25;;
76035;SDS011;64732;56.314;44.068;2023-05-27T11:16:48;10.80;;;6.35;;
76035;SDS011;64732;56.314;44.068;2023-05-27T11:19:13;9.85;;;5.75;;
76035;SDS011;64732;56.314;44.068;2023-05-27T11:21:34;7.50;;;5.22;;
76035;SDS011;64732;56.314;44.068;2023-05-27T11:23:55;6.90;;;5.30;;
76035;SDS011;64732;56.314;44.068;2023-05-27T11:26:18;6.82;;;3.95;;
76035;SDS011;64732;56.314;44.068;2023-05-27T11:28:46;8.63;;;4.22;;
76035;SDS011;64732;56.314;44.068;2023-05-27T11:31:07;6.85;;;4.13;;
76035;SDS011;64732;56.314;44.068;2023-05-27T11:33:32;6.07;;;4.30;;
76035;SDS011;64732;56.314;44.068;2023-05-27T11:36:05;8.82;;;4.38;;
76035;SDS011;64732;56.314;44.068;2023-05-27T11:38:26;10.40;;;4.25;;
76035;SDS011;64732;56.314;44.068;2023-05-27T11:40:47;8.18;;;4.82;;
76035;SDS011;64732;56.314;44.068;2023-05-27T11:43:08;10.98;;;4.97;;
76035;SDS011;64732;56.314;44.068;2023-05-27T11:45:29;8.43;;;4.95;;
76035;SDS011;64732;56.314;44.068;2023-05-27T11:47:50;10.50;;;5.40;;
76035;SDS011;64732;56.314;44.068;2023-05-27T11:50:11;8.60;;;4.72;;
76035;SDS011;64732;56.314;44.068;2023-05-27T11:52:37;5.55;;;4.15;;
76035;SDS011;64732;56.314;44.068;2023-05-27T11:55:13;9.18;;;4.95;;
76035;SDS011;64732;56.314;44.068;2023-05-27T11:57:35;8.32;;;4.72;;
76035;SDS011;64732;56.314;44.068;2023-05-27T11:59:56;19.55;;;13.73;;
76035;SDS011;64732;56.314;44.068;2023-05-27T12:02:17;6.50;;;4.45;;
76035;SDS011;64732;56.314;44.068;2023-05-27T12:04:38;6.93;;;4.38;;
76035;SDS011;64732;56.314;44.068;2023-05-27T12:07:00;5.28;;;4.00;;
76035;SDS011;64732;56.314;44.068;2023-05-27T12:09:24;7.00;;;4.20;;
76035;SDS011;64732;56.314;44.068;2023-05-27T12:11:45;6.07;;;4.10;;
76035;SDS011;64732;56.314;44.068;2023-05-27T12:14:06;7.30;;;5.05;;
76035;SDS011;64732;56.314;44.068;2023-05-27T12:16:27;8.95;;;4.38;;
76035;SDS011;64732;56.314;44.068;2023-05-27T12:18:49;8.98;;;5.40;;
76035;SDS011;64732;56.314;44.068;2023-05-27T12:21:10;8.70;;;4.68;;
76035;SDS011;64732;56.314;44.068;2023-05-27T12:23:31;8.35;;;5.70;;
76035;SDS011;64732;56.314;44.068;2023-05-27T12:25:55;7.70;;;4.72;;
76035;SDS011;64732;56.314;44.068;2023-05-27T12:28:16;7.15;;;4.88;;
76035;SDS011;64732;56.314;44.068;2023-05-27T12:30:37;6.97;;;5.20;;
76035;SDS011;64732;56.314;44.068;2023-05-27T12:32:58;8.60;;;4.55;;
76035;SDS011;64732;56.314;44.068;2023-05-27T12:35:19;11.32;;;5.05;;
76035;SDS011;64732;56.314;44.068;2023-05-27T12:37:40;9.20;;;5.20;;
76035;SDS011;64732;56.314;44.068;2023-05-27T12:40:02;8.95;;;5.68;;
76035;SDS011;64732;56.314;44.068;2023-05-27T12:42:27;10.73;;;7.18;;
76035;SDS011;64732;56.314;44.068;2023-05-27T12:44:48;8.02;;;5.45;;
76035;SDS011;64732;56.314;44.068;2023-05-27T12:47:09;9.20;;;6.50;;
76035;SDS011;64732;56.314;44.068;2023-05-27T12:49:33;8.45;;;5.35;;
76035;SDS011;64732;56.314;44.068;2023-05-27T12:51:54;6.80;;;4.40;;
76035;SDS011;64732;56.314;44.068;2023-05-27T12:54:18;10.13;;;5.53;;
76035;SDS011;64732;56.314;44.068;2023-05-27T12:56:43;7.05;;;4.50;;
76035;SDS011;64732;56.314;44.068;2023-05-27T12:59:07;7.72;;;4.85;;
76035;SDS011;64732;56.314;44.068;2023-05-27T13:01:28;10.90;;;5.53;;
76035;SDS011;64732;56.314;44.068;2023-05-27T13:03:49;11.70;;;6.82;;
76035;SDS011;64732;56.314;44.068;2023-05-27T13:06:10;13.05;;;6.93;;
76035;SDS011;64732;56.314;44.068;2023-05-27T13:08:31;10.10;;;6.20;;
76035;SDS011;64732;56.314;44.068;2023-05-27T13:10:52;10.00;;;5.55;;
76035;SDS011;64732;56.314;44.068;2023-05-27T13:13:13;18.83;;;8.60;;
76035;SDS011;64732;56.314;44.068;2023-05-27T13:15:37;19.30;;;7.38;;
76035;SDS011;64732;56.314;44.068;2023-05-27T13:17:58;10.95;;;6.53;;
76035;SDS011;64732;56.314;44.068;2023-05-27T13:20:20;13.98;;;7.07;;
76035;SDS011;64732;56.314;44.068;2023-05-27T13:22:45;11.45;;;5.70;;
76035;SDS011;64732;56.314;44.068;2023-05-27T13:25:06;10.98;;;4.10;;
76035;SDS011;64732;56.314;44.068;2023-05-27T13:27:28;9.73;;;4.28;;
76035;SDS011;64732;56.314;44.068;2023-05-27T13:29:49;6.57;;;2.58;;
76035;SDS011;64732;56.314;44.068;2023-05-27T13:32:12;8.48;;;4.22;;
76035;SDS011;64732;56.314;44.068;2023-05-27T13:34:36;6.65;;;3.70;;
76035;SDS011;64732;56.314;44.068;2023-05-27T13:36:57;9.40;;;5.63;;
76035;SDS011;64732;56.314;44.068;2023-05-27T13:39:18;8.45;;;5.40;;
76035;SDS011;64732;56.314;44.068;2023-05-27T13:41:39;10.90;;;6.13;;
76035;SDS011;64732;56.314;44.068;2023-05-27T13:44:00;16.75;;;6.90;;
76035;SDS011;64732;56.314;44.068;2023-05-27T13:46:21;11.68;;;7.32;;
76035;SDS011;64732;56.314;44.068;2023-05-27T13:48:45;10.88;;;6.68;;
76035;SDS011;64732;56.314;44.068;2023-05-27T13:51:06;12.30;;;7.55;;
76035;SDS011;64732;56.314;44.068;2023-05-27T13:53:26;9.82;;;7.20;;
76035;SDS011;64732;56.314;44.068;2023-05-27T13:55:47;7.93;;;4.82;;